sensor_id;sensor_type;location;lat;lon;timestamp;P1;durP1;ratioP1;P2;durP2;ratioP2
37785;SDS011;23625;48.784;9.336;2023-11-21T00:00:20;16.65;;;2.58;;
37785;SDS011;23625;48.784;9.336;2023-11-21T00:02:46;13.55;;;2.53;;
37785;SDS011;23625;48.784;9.336;2023-11-21T00:05:12;12.18;;;2.15;;
37785;SDS011;23625;48.784;9.336;2023-11-21T00:07:39;10.90;;;2.28;;
37785;SDS011;23625;48.784;9.336;2023-11-21T00:10:06;8.60;;;2.80;;
37785;SDS011;23625;48.784;9.336;2023-11-21T00:12:33;10.75;;;2.08;;
37785;SDS011;23625;48.784;9.336;2023-11-21T00:14:59;16.52;;;2.40;;
37785;SDS011;23625;48.784;9.336;2023-11-21T00:17:25;14.45;;;3.13;;
37785;SDS011;23625;48.784;9.336;2023-11-21T00:19:50;12.80;;;2.75;;
37785;SDS011;23625;48.784;9.336;2023-11-21T00:22:19;15.07;;;2.72;;
37785;SDS011;23625;48.784;9.336;2023-11-21T00:24:45;11.48;;;2.38;;
37785;SDS011;23625;48.784;9.336;2023-11-21T00:27:11;16.13;;;2.38;;
37785;SDS011;23625;48.784;9.336;2023-11-21T00:29:36;7.93;;;1.92;;
37785;SDS011;23625;48.784;9.336;2023-11-21T00:32:03;9.65;;;3.03;;
37785;SDS011;23625;48.784;9.336;2023-11-21T00:34:30;10.98;;;2.13;;
37785;SDS011;23625;48.784;9.336;2023-11-21T00:36:56;7.85;;;2.40;;
37785;SDS011;23625;48.784;9.336;2023-11-21T00:39:22;16.95;;;2.88;;
37785;SDS011;23625;48.784;9.336;2023-11-21T00:41:47;14.32;;;2.97;;
37785;SDS011;23625;48.784;9.336;2023-11-21T00:44:13;12.68;;;3.17;;
37785;SDS011;23625;48.784;9.336;2023-11-21T00:46:39;10.82;;;3.05;;
37785;SDS011;23625;48.784;9.336;2023-11-21T00:49:04;9.57;;;2.92;;
37785;SDS011;23625;48.784;9.336;2023-11-21T00:51:30;11.18;;;2.65;;
37785;SDS011;23625;48.784;9.336;2023-11-21T00:53:56;14.55;;;2.95;;
37785;SDS011;23625;48.784;9.336;2023-11-21T00:56:23;10.07;;;2.60;;
37785;SDS011;23625;48.784;9.336;2023-11-21T00:58:49;10.80;;;2.83;;
37785;SDS011;23625;48.784;9.336;2023-11-21T01:01:17;16.38;;;3.63;;
37785;SDS011;23625;48.784;9.336;2023-11-21T01:03:48;11.43;;;3.28;;
37785;SDS011;23625;48.784;9.336;2023-11-21T01:06:14;14.40;;;2.65;;
37785;SDS011;23625;48.784;9.336;2023-11-21T01:08:40;13.65;;;2.75;;
37785;SDS011;23625;48.784;9.336;2023-11-21T01:11:05;8.52;;;2.13;;
37785;SDS011;23625;48.784;9.336;2023-11-21T01:13:33;12.48;;;2.88;;
37785;SDS011;23625;48.784;9.336;2023-11-21T01:16:00;14.18;;;2.40;;
37785;SDS011;23625;48.784;9.336;2023-11-21T01:18:26;10.00;;;2.20;;
37785;SDS011;23625;48.784;9.336;2023-11-21T01:20:52;12.57;;;3.03;;
37785;SDS011;23625;48.784;9.336;2023-11-21T01:23:21;6.25;;;2.10;;
37785;SDS011;23625;48.784;9.336;2023-11-21T01:25:47;4.53;;;1.92;;
37785;SDS011;23625;48.784;9.336;2023-11-21T01:28:12;5.03;;;1.95;;
37785;SDS011;23625;48.784;9.336;2023-11-21T01:30:38;11.35;;;2.17;;
37785;SDS011;23625;48.784;9.336;2023-11-21T01:33:04;7.47;;;1.70;;
37785;SDS011;23625;48.784;9.336;2023-11-21T01:35:29;14.18;;;2.60;;
37785;SDS011;23625;48.784;9.336;2023-11-21T01:37:55;8.77;;;1.85;;
37785;SDS011;23625;48.784;9.336;2023-11-21T01:40:21;8.38;;;2.20;;
37785;SDS011;23625;48.784;9.336;2023-11-21T01:42:46;7.97;;;2.00;;
37785;SDS011;23625;48.784;9.336;2023-11-21T01:45:13;13.13;;;2.03;;
37785;SDS011;23625;48.784;9.336;2023-11-21T01:47:40;11.88;;;2.20;;
37785;SDS011;23625;48.784;9.336;2023-11-21T01:50:07;7.40;;;2.22;;
37785;SDS011;23625;48.784;9.336;2023-11-21T01:52:35;9.77;;;2.67;;
37785;SDS011;23625;48.784;9.336;2023-11-21T01:55:00;8.93;;;1.88;;
37785;SDS011;23625;48.784;9.336;2023-11-21T01:57:27;8.70;;;1.98;;
37785;SDS011;23625;48.784;9.336;2023-11-21T01:59:54;7.82;;;2.30;;
37785;SDS011;23625;48.784;9.336;2023-11-21T02:02:20;8.75;;;2.30;;
37785;SDS011;23625;48.784;9.336;2023-11-21T02:04:45;7.13;;;1.63;;
37785;SDS011;23625;48.784;9.336;2023-11-21T02:07:11;10.20;;;1.88;;
37785;SDS011;23625;48.784;9.336;2023-11-21T02:09:37;8.25;;;1.80;;
37785;SDS011;23625;48.784;9.336;2023-11-21T02:12:03;8.65;;;1.70;;
37785;SDS011;23625;48.784;9.336;2023-11-21T02:14:30;9.65;;;2.53;;
37785;SDS011;23625;48.784;9.336;2023-11-21T02:16:56;4.65;;;1.73;;
37785;SDS011;23625;48.784;9.336;2023-11-21T02:19:22;9.27;;;1.83;;
37785;SDS011;23625;48.784;9.336;2023-11-21T02:21:50;7.35;;;1.90;;
37785;SDS011;23625;48.784;9.336;2023-11-21T02:24:18;6.65;;;1.60;;
37785;SDS011;23625;48.784;9.336;2023-11-21T02:26:48;9.70;;;1.88;;
37785;SDS011;23625;48.784;9.336;2023-11-21T02:29:16;8.77;;;2.55;;
37785;SDS011;23625;48.784;9.336;2023-11-21T02:31:47;7.05;;;1.70;;
37785;SDS011;23625;48.784;9.336;2023-11-21T02:34:14;5.38;;;1.20;;
37785;SDS011;23625;48.784;9.336;2023-11-21T02:36:40;6.80;;;1.85;;
37785;SDS011;23625;48.784;9.336;2023-11-21T02:39:07;6.32;;;1.17;;
37785;SDS011;23625;48.784;9.336;2023-11-21T02:41:33;8.13;;;1.50;;
37785;SDS011;23625;48.784;9.336;2023-11-21T02:43:59;4.95;;;1.58;;
37785;SDS011;23625;48.784;9.336;2023-11-21T02:46:25;7.60;;;1.30;;
37785;SDS011;23625;48.784;9.336;2023-11-21T02:48:51;3.75;;;1.17;;
37785;SDS011;23625;48.784;9.336;2023-11-21T02:51:19;5.60;;;1.15;;
37785;SDS011;23625;48.784;9.336;2023-11-21T02:53:44;3.70;;;1.35;;
37785;SDS011;23625;48.784;9.336;2023-11-21T02:56:11;4.00;;;1.13;;
37785;SDS011;23625;48.784;9.336;2023-11-21T02:58:37;4.22;;;1.70;;
37785;SDS011;23625;48.784;9.336;2023-11-21T03:01:02;5.60;;;1.25;;
37785;SDS011;23625;48.784;9.336;2023-11-21T03:03:30;11.68;;;1.40;;
37785;SDS011;23625;48.784;9.336;2023-11-21T03:05:56;8.45;;;1.60;;
37785;SDS011;23625;48.784;9.336;2023-11-21T03:08:21;5.47;;;1.25;;
37785;SDS011;23625;48.784;9.336;2023-11-21T03:10:47;6.80;;;1.30;;
37785;SDS011;23625;48.784;9.336;2023-11-21T03:13:12;4.60;;;1.23;;
37785;SDS011;23625;48.784;9.336;2023-11-21T03:15:38;6.70;;;1.20;;
37785;SDS011;23625;48.784;9.336;2023-11-21T03:18:04;5.75;;;1.15;;
37785;SDS011;23625;48.784;9.336;2023-11-21T03:20:30;2.65;;;0.80;;
37785;SDS011;23625;48.784;9.336;2023-11-21T03:22:55;7.72;;;1.33;;
37785;SDS011;23625;48.784;9.336;2023-11-21T03:25:21;2.15;;;0.90;;
37785;SDS011;23625;48.784;9.336;2023-11-21T03:27:48;5.60;;;1.20;;
37785;SDS011;23625;48.784;9.336;2023-11-21T03:30:14;5.28;;;1.00;;
37785;SDS011;23625;48.784;9.336;2023-11-21T03:32:40;8.35;;;1.15;;
37785;SDS011;23625;48.784;9.336;2023-11-21T03:35:05;4.60;;;1.30;;
37785;SDS011;23625;48.784;9.336;2023-11-21T03:37:32;7.50;;;1.10;;
37785;SDS011;23625;48.784;9.336;2023-11-21T03:39:59;4.50;;;0.80;;
37785;SDS011;23625;48.784;9.336;2023-11-21T03:42:24;9.20;;;1.52;;
37785;SDS011;23625;48.784;9.336;2023-11-21T03:44:53;4.22;;;0.90;;
37785;SDS011;23625;48.784;9.336;2023-11-21T03:47:18;5.70;;;1.23;;
37785;SDS011;23625;48.784;9.336;2023-11-21T03:49:44;6.97;;;1.77;;
37785;SDS011;23625;48.784;9.336;2023-11-21T03:52:10;4.80;;;1.08;;
37785;SDS011;23625;48.784;9.336;2023-11-21T03:54:36;7.07;;;0.98;;
37785;SDS011;23625;48.784;9.336;2023-11-21T03:57:02;3.65;;;1.08;;
37785;SDS011;23625;48.784;9.336;2023-11-21T03:59:28;2.90;;;0.70;;
37785;SDS011;23625;48.784;9.336;2023-11-21T04:01:55;3.78;;;1.15;;
37785;SDS011;23625;48.784;9.336;2023-11-21T04:04:21;5.55;;;1.10;;
37785;SDS011;23625;48.784;9.336;2023-11-21T04:06:47;2.50;;;0.77;;
37785;SDS011;23625;48.784;9.336;2023-11-21T04:09:13;3.70;;;0.80;;
37785;SDS011;23625;48.784;9.336;2023-11-21T04:11:39;3.60;;;1.25;;
37785;SDS011;23625;48.784;9.336;2023-11-21T04:14:04;2.85;;;1.20;;
37785;SDS011;23625;48.784;9.336;2023-11-21T04:16:30;3.50;;;0.88;;
37785;SDS011;23625;48.784;9.336;2023-11-21T04:18:55;3.83;;;0.90;;
37785;SDS011;23625;48.784;9.336;2023-11-21T04:21:22;4.70;;;0.77;;
37785;SDS011;23625;48.784;9.336;2023-11-21T04:23:49;2.80;;;0.60;;
37785;SDS011;23625;48.784;9.336;2023-11-21T04:26:15;2.33;;;0.82;;
37785;SDS011;23625;48.784;9.336;2023-11-21T04:28:41;3.63;;;0.93;;
37785;SDS011;23625;48.784;9.336;2023-11-21T04:31:06;2.22;;;0.75;;
37785;SDS011;23625;48.784;9.336;2023-11-21T04:33:32;2.45;;;0.90;;
37785;SDS011;23625;48.784;9.336;2023-11-21T04:35:58;3.00;;;0.73;;
37785;SDS011;23625;48.784;9.336;2023-11-21T04:38:23;3.00;;;0.70;;
37785;SDS011;23625;48.784;9.336;2023-11-21T04:40:49;4.10;;;1.00;;
37785;SDS011;23625;48.784;9.336;2023-11-21T04:43:14;0.93;;;0.57;;
37785;SDS011;23625;48.784;9.336;2023-11-21T04:45:40;4.05;;;0.73;;
37785;SDS011;23625;48.784;9.336;2023-11-21T04:48:06;7.10;;;0.90;;
37785;SDS011;23625;48.784;9.336;2023-11-21T04:50:33;4.18;;;0.80;;
37785;SDS011;23625;48.784;9.336;2023-11-21T04:52:59;5.57;;;0.90;;
37785;SDS011;23625;48.784;9.336;2023-11-21T04:55:24;4.05;;;1.00;;
37785;SDS011;23625;48.784;9.336;2023-11-21T04:57:52;6.07;;;0.70;;
37785;SDS011;23625;48.784;9.336;2023-11-21T05:00:18;2.92;;;0.50;;
37785;SDS011;23625;48.784;9.336;2023-11-21T05:02:45;3.53;;;0.52;;
37785;SDS011;23625;48.784;9.336;2023-11-21T05:05:10;5.45;;;0.90;;
37785;SDS011;23625;48.784;9.336;2023-11-21T05:07:36;2.67;;;0.73;;
37785;SDS011;23625;48.784;9.336;2023-11-21T05:10:04;4.28;;;0.50;;
37785;SDS011;23625;48.784;9.336;2023-11-21T05:12:33;2.97;;;1.58;;
37785;SDS011;23625;48.784;9.336;2023-11-21T05:15:03;5.43;;;0.70;;
37785;SDS011;23625;48.784;9.336;2023-11-21T05:17:33;1.08;;;0.70;;
37785;SDS011;23625;48.784;9.336;2023-11-21T05:19:59;1.92;;;0.50;;
37785;SDS011;23625;48.784;9.336;2023-11-21T05:22:28;4.70;;;0.85;;
37785;SDS011;23625;48.784;9.336;2023-11-21T05:24:54;6.13;;;0.73;;
37785;SDS011;23625;48.784;9.336;2023-11-21T05:27:20;3.28;;;0.52;;
37785;SDS011;23625;48.784;9.336;2023-11-21T05:29:45;2.53;;;0.82;;
37785;SDS011;23625;48.784;9.336;2023-11-21T05:32:11;2.60;;;0.60;;
37785;SDS011;23625;48.784;9.336;2023-11-21T05:34:36;1.30;;;0.57;;
37785;SDS011;23625;48.784;9.336;2023-11-21T05:37:02;5.18;;;0.70;;
37785;SDS011;23625;48.784;9.336;2023-11-21T05:39:30;1.48;;;0.47;;
37785;SDS011;23625;48.784;9.336;2023-11-21T05:41:56;5.40;;;0.88;;
37785;SDS011;23625;48.784;9.336;2023-11-21T05:44:22;2.47;;;0.60;;
37785;SDS011;23625;48.784;9.336;2023-11-21T05:46:48;2.10;;;0.70;;
37785;SDS011;23625;48.784;9.336;2023-11-21T05:49:15;3.67;;;0.70;;
37785;SDS011;23625;48.784;9.336;2023-11-21T05:51:41;4.82;;;0.88;;
37785;SDS011;23625;48.784;9.336;2023-11-21T05:54:07;0.65;;;0.35;;
37785;SDS011;23625;48.784;9.336;2023-11-21T05:56:33;3.40;;;0.80;;
37785;SDS011;23625;48.784;9.336;2023-11-21T05:58:58;2.40;;;0.60;;
37785;SDS011;23625;48.784;9.336;2023-11-21T06:01:24;3.47;;;0.80;;
37785;SDS011;23625;48.784;9.336;2023-11-21T06:03:53;4.60;;;0.52;;
37785;SDS011;23625;48.784;9.336;2023-11-21T06:06:19;4.60;;;0.65;;
37785;SDS011;23625;48.784;9.336;2023-11-21T06:08:47;1.13;;;0.60;;
37785;SDS011;23625;48.784;9.336;2023-11-21T06:11:16;5.68;;;0.60;;
37785;SDS011;23625;48.784;9.336;2023-11-21T06:13:41;2.33;;;0.52;;
37785;SDS011;23625;48.784;9.336;2023-11-21T06:16:07;0.65;;;0.60;;
37785;SDS011;23625;48.784;9.336;2023-11-21T06:18:33;1.73;;;0.60;;
37785;SDS011;23625;48.784;9.336;2023-11-21T06:21:00;2.95;;;0.82;;
37785;SDS011;23625;48.784;9.336;2023-11-21T06:23:25;0.50;;;0.30;;
37785;SDS011;23625;48.784;9.336;2023-11-21T06:25:51;5.45;;;0.93;;
37785;SDS011;23625;48.784;9.336;2023-11-21T06:28:17;3.58;;;1.05;;
37785;SDS011;23625;48.784;9.336;2023-11-21T06:30:43;3.03;;;0.60;;
37785;SDS011;23625;48.784;9.336;2023-11-21T06:33:10;5.57;;;0.80;;
37785;SDS011;23625;48.784;9.336;2023-11-21T06:35:36;4.07;;;0.82;;
37785;SDS011;23625;48.784;9.336;2023-11-21T06:38:01;1.73;;;0.82;;
37785;SDS011;23625;48.784;9.336;2023-11-21T06:40:28;1.48;;;0.80;;
37785;SDS011;23625;48.784;9.336;2023-11-21T06:42:53;0.88;;;0.70;;
37785;SDS011;23625;48.784;9.336;2023-11-21T06:45:20;4.68;;;0.73;;
37785;SDS011;23625;48.784;9.336;2023-11-21T06:47:46;3.33;;;1.02;;
37785;SDS011;23625;48.784;9.336;2023-11-21T06:50:12;1.95;;;0.60;;
37785;SDS011;23625;48.784;9.336;2023-11-21T06:52:38;0.77;;;0.50;;
37785;SDS011;23625;48.784;9.336;2023-11-21T06:55:03;6.03;;;0.90;;
37785;SDS011;23625;48.784;9.336;2023-11-21T06:57:29;3.70;;;1.27;;
37785;SDS011;23625;48.784;9.336;2023-11-21T06:59:56;1.27;;;0.77;;
37785;SDS011;23625;48.784;9.336;2023-11-21T07:02:22;5.90;;;0.80;;
37785;SDS011;23625;48.784;9.336;2023-11-21T07:04:48;1.65;;;0.50;;
37785;SDS011;23625;48.784;9.336;2023-11-21T07:07:13;1.05;;;0.50;;
37785;SDS011;23625;48.784;9.336;2023-11-21T07:09:39;2.72;;;0.63;;
37785;SDS011;23625;48.784;9.336;2023-11-21T07:12:04;5.45;;;0.73;;
37785;SDS011;23625;48.784;9.336;2023-11-21T07:14:32;5.43;;;0.80;;
37785;SDS011;23625;48.784;9.336;2023-11-21T07:16:59;3.80;;;0.90;;
37785;SDS011;23625;48.784;9.336;2023-11-21T07:19:24;2.33;;;1.00;;
37785;SDS011;23625;48.784;9.336;2023-11-21T07:21:50;1.83;;;0.60;;
37785;SDS011;23625;48.784;9.336;2023-11-21T07:24:16;2.60;;;0.65;;
37785;SDS011;23625;48.784;9.336;2023-11-21T07:26:42;1.73;;;0.70;;
37785;SDS011;23625;48.784;9.336;2023-11-21T07:29:08;2.53;;;0.88;;
37785;SDS011;23625;48.784;9.336;2023-11-21T07:31:33;4.18;;;0.75;;
37785;SDS011;23625;48.784;9.336;2023-11-21T07:33:59;6.53;;;0.82;;
37785;SDS011;23625;48.784;9.336;2023-11-21T07:36:25;13.52;;;2.35;;
37785;SDS011;23625;48.784;9.336;2023-11-21T07:38:51;2.83;;;0.98;;
37785;SDS011;23625;48.784;9.336;2023-11-21T07:41:17;2.17;;;0.80;;
37785;SDS011;23625;48.784;9.336;2023-11-21T07:43:43;2.15;;;0.80;;
37785;SDS011;23625;48.784;9.336;2023-11-21T07:46:09;1.98;;;1.02;;
37785;SDS011;23625;48.784;9.336;2023-11-21T07:48:37;4.88;;;0.88;;
37785;SDS011;23625;48.784;9.336;2023-11-21T07:51:07;3.30;;;1.17;;
37785;SDS011;23625;48.784;9.336;2023-11-21T07:53:33;4.35;;;1.17;;
37785;SDS011;23625;48.784;9.336;2023-11-21T07:56:02;3.28;;;1.33;;
37785;SDS011;23625;48.784;9.336;2023-11-21T07:58:29;3.78;;;1.05;;
37785;SDS011;23625;48.784;9.336;2023-11-21T08:00:54;7.22;;;1.40;;
37785;SDS011;23625;48.784;9.336;2023-11-21T08:03:20;6.20;;;1.35;;
37785;SDS011;23625;48.784;9.336;2023-11-21T08:05:46;2.38;;;1.27;;
37785;SDS011;23625;48.784;9.336;2023-11-21T08:08:12;2.45;;;1.38;;
37785;SDS011;23625;48.784;9.336;2023-11-21T08:10:37;4.22;;;1.20;;
37785;SDS011;23625;48.784;9.336;2023-11-21T08:13:04;3.70;;;1.33;;
37785;SDS011;23625;48.784;9.336;2023-11-21T08:15:30;2.83;;;1.05;;
37785;SDS011;23625;48.784;9.336;2023-11-21T08:17:57;5.05;;;1.33;;
37785;SDS011;23625;48.784;9.336;2023-11-21T08:20:24;3.85;;;2.45;;
37785;SDS011;23625;48.784;9.336;2023-11-21T08:22:50;6.60;;;1.40;;
37785;SDS011;23625;48.784;9.336;2023-11-21T08:25:17;4.25;;;1.27;;
37785;SDS011;23625;48.784;9.336;2023-11-21T08:27:45;5.30;;;1.67;;
37785;SDS011;23625;48.784;9.336;2023-11-21T08:30:11;2.78;;;1.60;;
37785;SDS011;23625;48.784;9.336;2023-11-21T08:32:38;6.55;;;1.40;;
37785;SDS011;23625;48.784;9.336;2023-11-21T08:35:04;2.40;;;1.48;;
37785;SDS011;23625;48.784;9.336;2023-11-21T08:37:31;2.20;;;1.30;;
37785;SDS011;23625;48.784;9.336;2023-11-21T08:39:58;3.80;;;1.42;;
37785;SDS011;23625;48.784;9.336;2023-11-21T08:42:27;6.40;;;2.17;;
37785;SDS011;23625;48.784;9.336;2023-11-21T08:44:54;6.82;;;1.40;;
37785;SDS011;23625;48.784;9.336;2023-11-21T08:47:22;4.13;;;2.22;;
37785;SDS011;23625;48.784;9.336;2023-11-21T08:49:49;6.20;;;1.50;;
37785;SDS011;23625;48.784;9.336;2023-11-21T08:52:18;3.55;;;1.60;;
37785;SDS011;23625;48.784;9.336;2023-11-21T08:54:49;6.57;;;1.77;;
37785;SDS011;23625;48.784;9.336;2023-11-21T08:57:21;3.33;;;1.40;;
37785;SDS011;23625;48.784;9.336;2023-11-21T08:59:47;6.65;;;1.45;;
37785;SDS011;23625;48.784;9.336;2023-11-21T09:02:13;5.22;;;1.48;;
37785;SDS011;23625;48.784;9.336;2023-11-21T09:04:38;3.15;;;1.35;;
37785;SDS011;23625;48.784;9.336;2023-11-21T09:07:04;2.47;;;1.27;;
37785;SDS011;23625;48.784;9.336;2023-11-21T09:09:30;4.50;;;0.98;;
37785;SDS011;23625;48.784;9.336;2023-11-21T09:11:55;16.55;;;2.72;;
37785;SDS011;23625;48.784;9.336;2023-11-21T09:14:21;5.47;;;1.65;;
37785;SDS011;23625;48.784;9.336;2023-11-21T09:16:47;4.80;;;2.08;;
37785;SDS011;23625;48.784;9.336;2023-11-21T09:19:12;1.60;;;1.02;;
37785;SDS011;23625;48.784;9.336;2023-11-21T09:21:39;3.67;;;0.95;;
37785;SDS011;23625;48.784;9.336;2023-11-21T09:24:05;2.97;;;1.30;;
37785;SDS011;23625;48.784;9.336;2023-11-21T09:26:30;5.53;;;1.05;;
37785;SDS011;23625;48.784;9.336;2023-11-21T09:28:56;1.70;;;1.05;;
37785;SDS011;23625;48.784;9.336;2023-11-21T09:31:22;5.70;;;1.10;;
37785;SDS011;23625;48.784;9.336;2023-11-21T09:33:48;2.47;;;1.10;;
37785;SDS011;23625;48.784;9.336;2023-11-21T09:36:14;7.25;;;1.05;;
37785;SDS011;23625;48.784;9.336;2023-11-21T09:38:40;3.97;;;1.45;;
37785;SDS011;23625;48.784;9.336;2023-11-21T09:41:11;2.47;;;1.25;;
37785;SDS011;23625;48.784;9.336;2023-11-21T09:43:49;3.78;;;1.30;;
37785;SDS011;23625;48.784;9.336;2023-11-21T09:46:19;3.47;;;1.27;;
37785;SDS011;23625;48.784;9.336;2023-11-21T09:48:50;4.32;;;1.88;;
37785;SDS011;23625;48.784;9.336;2023-11-21T09:51:19;3.15;;;1.42;;
37785;SDS011;23625;48.784;9.336;2023-11-21T09:53:47;6.30;;;1.40;;
37785;SDS011;23625;48.784;9.336;2023-11-21T09:56:17;2.53;;;1.20;;
37785;SDS011;23625;48.784;9.336;2023-11-21T09:58:50;5.95;;;1.40;;
37785;SDS011;23625;48.784;9.336;2023-11-21T10:01:16;5.75;;;1.20;;
37785;SDS011;23625;48.784;9.336;2023-11-21T10:03:44;4.57;;;1.65;;
37785;SDS011;23625;48.784;9.336;2023-11-21T10:06:10;4.93;;;1.50;;
37785;SDS011;23625;48.784;9.336;2023-11-21T10:08:39;2.53;;;1.08;;
37785;SDS011;23625;48.784;9.336;2023-11-21T10:11:06;2.85;;;1.48;;
37785;SDS011;23625;48.784;9.336;2023-11-21T10:13:36;3.70;;;1.58;;
37785;SDS011;23625;48.784;9.336;2023-11-21T10:16:03;2.90;;;1.13;;
37785;SDS011;23625;48.784;9.336;2023-11-21T10:18:32;2.85;;;1.17;;
37785;SDS011;23625;48.784;9.336;2023-11-21T10:20:59;1.83;;;0.93;;
37785;SDS011;23625;48.784;9.336;2023-11-21T10:23:25;2.22;;;1.10;;
37785;SDS011;23625;48.784;9.336;2023-11-21T10:25:52;2.60;;;1.33;;
37785;SDS011;23625;48.784;9.336;2023-11-21T10:28:18;3.20;;;1.45;;
37785;SDS011;23625;48.784;9.336;2023-11-21T10:30:45;2.17;;;1.00;;
37785;SDS011;23625;48.784;9.336;2023-11-21T10:33:11;4.85;;;1.40;;
37785;SDS011;23625;48.784;9.336;2023-11-21T10:35:47;5.07;;;1.38;;
37785;SDS011;23625;48.784;9.336;2023-11-21T10:38:19;2.38;;;1.38;;
37785;SDS011;23625;48.784;9.336;2023-11-21T10:40:49;4.97;;;1.60;;
37785;SDS011;23625;48.784;9.336;2023-11-21T10:43:15;4.10;;;1.73;;
37785;SDS011;23625;48.784;9.336;2023-11-21T10:45:42;3.42;;;1.50;;
37785;SDS011;23625;48.784;9.336;2023-11-21T10:48:15;3.33;;;1.50;;
37785;SDS011;23625;48.784;9.336;2023-11-21T10:50:41;2.53;;;1.40;;
37785;SDS011;23625;48.784;9.336;2023-11-21T10:53:07;5.72;;;2.20;;
37785;SDS011;23625;48.784;9.336;2023-11-21T10:55:33;4.10;;;1.85;;
37785;SDS011;23625;48.784;9.336;2023-11-21T10:58:00;3.80;;;1.52;;
37785;SDS011;23625;48.784;9.336;2023-11-21T11:00:29;2.42;;;1.55;;
37785;SDS011;23625;48.784;9.336;2023-11-21T11:02:55;7.03;;;1.80;;
37785;SDS011;23625;48.784;9.336;2023-11-21T11:05:21;2.90;;;1.48;;
37785;SDS011;23625;48.784;9.336;2023-11-21T11:07:58;3.03;;;1.13;;
37785;SDS011;23625;48.784;9.336;2023-11-21T11:10:29;1.83;;;0.80;;
37785;SDS011;23625;48.784;9.336;2023-11-21T11:12:55;1.85;;;0.90;;
37785;SDS011;23625;48.784;9.336;2023-11-21T11:15:22;1.10;;;0.63;;
37785;SDS011;23625;48.784;9.336;2023-11-21T11:17:48;2.05;;;0.52;;
37785;SDS011;23625;48.784;9.336;2023-11-21T11:20:15;2.40;;;1.17;;
37785;SDS011;23625;48.784;9.336;2023-11-21T11:28:20;5.15;;;1.38;;
37785;SDS011;23625;48.784;9.336;2023-11-21T11:33:34;2.63;;;1.63;;
37785;SDS011;23625;48.784;9.336;2023-11-21T11:39:28;2.25;;;1.17;;
37785;SDS011;23625;48.784;9.336;2023-11-21T11:42:07;2.38;;;1.08;;
37785;SDS011;23625;48.784;9.336;2023-11-21T11:47:19;2.15;;;0.93;;
37785;SDS011;23625;48.784;9.336;2023-11-21T11:52:36;2.22;;;0.63;;
37785;SDS011;23625;48.784;9.336;2023-11-21T11:55:05;2.55;;;0.65;;
37785;SDS011;23625;48.784;9.336;2023-11-21T11:57:34;1.65;;;0.70;;
37785;SDS011;23625;48.784;9.336;2023-11-21T12:02:57;0.90;;;0.80;;
37785;SDS011;23625;48.784;9.336;2023-11-21T12:05:24;1.00;;;0.90;;
37785;SDS011;23625;48.784;9.336;2023-11-21T12:07:55;5.10;;;0.90;;
37785;SDS011;23625;48.784;9.336;2023-11-21T12:10:25;1.67;;;0.80;;
37785;SDS011;23625;48.784;9.336;2023-11-21T12:13:01;2.58;;;2.00;;
37785;SDS011;23625;48.784;9.336;2023-11-21T12:15:28;3.05;;;2.22;;
37785;SDS011;23625;48.784;9.336;2023-11-21T12:17:56;3.80;;;2.20;;
37785;SDS011;23625;48.784;9.336;2023-11-21T12:20:26;4.57;;;2.05;;
37785;SDS011;23625;48.784;9.336;2023-11-21T12:22:53;2.47;;;1.75;;
37785;SDS011;23625;48.784;9.336;2023-11-21T12:25:21;2.53;;;1.85;;
37785;SDS011;23625;48.784;9.336;2023-11-21T12:27:49;3.03;;;2.20;;
37785;SDS011;23625;48.784;9.336;2023-11-21T12:30:18;2.47;;;2.20;;
37785;SDS011;23625;48.784;9.336;2023-11-21T12:32:53;2.83;;;2.40;;
37785;SDS011;23625;48.784;9.336;2023-11-21T12:35:21;10.85;;;5.85;;
37785;SDS011;23625;48.784;9.336;2023-11-21T12:37:49;2.42;;;1.75;;
37785;SDS011;23625;48.784;9.336;2023-11-21T12:40:16;4.28;;;2.10;;
37785;SDS011;23625;48.784;9.336;2023-11-21T12:42:42;6.75;;;3.13;;
37785;SDS011;23625;48.784;9.336;2023-11-21T12:47:45;6.78;;;4.15;;
37785;SDS011;23625;48.784;9.336;2023-11-21T12:50:18;2.58;;;1.90;;
37785;SDS011;23625;48.784;9.336;2023-11-21T12:52:48;3.40;;;2.25;;
37785;SDS011;23625;48.784;9.336;2023-11-21T12:55:19;4.55;;;2.50;;
37785;SDS011;23625;48.784;9.336;2023-11-21T12:57:52;4.30;;;2.20;;
37785;SDS011;23625;48.784;9.336;2023-11-21T13:00:30;5.97;;;2.10;;
37785;SDS011;23625;48.784;9.336;2023-11-21T13:02:59;1.45;;;1.35;;
37785;SDS011;23625;48.784;9.336;2023-11-21T13:05:26;4.25;;;1.50;;
37785;SDS011;23625;48.784;9.336;2023-11-21T13:07:53;1.77;;;1.50;;
37785;SDS011;23625;48.784;9.336;2023-11-21T13:10:26;4.75;;;1.00;;
37785;SDS011;23625;48.784;9.336;2023-11-21T13:12:55;3.10;;;1.00;;
37785;SDS011;23625;48.784;9.336;2023-11-21T13:15:23;1.73;;;1.13;;
37785;SDS011;23625;48.784;9.336;2023-11-21T13:17:49;1.60;;;0.90;;
37785;SDS011;23625;48.784;9.336;2023-11-21T13:20:16;4.20;;;1.20;;
37785;SDS011;23625;48.784;9.336;2023-11-21T13:25:15;3.15;;;1.50;;
37785;SDS011;23625;48.784;9.336;2023-11-21T13:27:43;4.35;;;1.60;;
37785;SDS011;23625;48.784;9.336;2023-11-21T13:30:11;3.13;;;1.50;;
37785;SDS011;23625;48.784;9.336;2023-11-21T13:32:45;3.72;;;1.85;;
37785;SDS011;23625;48.784;9.336;2023-11-21T13:35:11;7.28;;;1.83;;
37785;SDS011;23625;48.784;9.336;2023-11-21T13:37:46;5.38;;;1.40;;
37785;SDS011;23625;48.784;9.336;2023-11-21T13:40:15;4.07;;;1.30;;
37785;SDS011;23625;48.784;9.336;2023-11-21T13:42:45;2.20;;;1.42;;
37785;SDS011;23625;48.784;9.336;2023-11-21T13:45:10;3.92;;;1.90;;
37785;SDS011;23625;48.784;9.336;2023-11-21T13:47:37;2.97;;;2.55;;
37785;SDS011;23625;48.784;9.336;2023-11-21T13:50:05;3.58;;;2.60;;
37785;SDS011;23625;48.784;9.336;2023-11-21T13:52:39;6.70;;;3.03;;
37785;SDS011;23625;48.784;9.336;2023-11-21T13:55:04;2.75;;;2.05;;
37785;SDS011;23625;48.784;9.336;2023-11-21T13:57:36;7.63;;;3.85;;
37785;SDS011;23625;48.784;9.336;2023-11-21T14:00:03;3.17;;;2.88;;
37785;SDS011;23625;48.784;9.336;2023-11-21T14:02:35;3.90;;;3.40;;
37785;SDS011;23625;48.784;9.336;2023-11-21T14:05:07;4.95;;;3.40;;
37785;SDS011;23625;48.784;9.336;2023-11-21T14:07:34;8.73;;;4.78;;
37785;SDS011;23625;48.784;9.336;2023-11-21T14:10:04;5.05;;;3.70;;
37785;SDS011;23625;48.784;9.336;2023-11-21T14:12:33;2.05;;;1.75;;
37785;SDS011;23625;48.784;9.336;2023-11-21T14:14:59;1.60;;;1.50;;
37785;SDS011;23625;48.784;9.336;2023-11-21T14:17:25;2.53;;;2.03;;
37785;SDS011;23625;48.784;9.336;2023-11-21T14:19:52;1.90;;;1.58;;
37785;SDS011;23625;48.784;9.336;2023-11-21T14:22:20;1.40;;;1.30;;
37785;SDS011;23625;48.784;9.336;2023-11-21T14:24:46;4.50;;;2.03;;
37785;SDS011;23625;48.784;9.336;2023-11-21T14:27:12;1.65;;;1.50;;
37785;SDS011;23625;48.784;9.336;2023-11-21T14:29:39;6.55;;;2.22;;
37785;SDS011;23625;48.784;9.336;2023-11-21T14:32:08;5.55;;;2.20;;
37785;SDS011;23625;48.784;9.336;2023-11-21T14:34:34;4.13;;;2.33;;
37785;SDS011;23625;48.784;9.336;2023-11-21T14:36:59;15.13;;;3.60;;
37785;SDS011;23625;48.784;9.336;2023-11-21T14:39:28;7.50;;;2.80;;
37785;SDS011;23625;48.784;9.336;2023-11-21T14:41:54;4.95;;;2.92;;
37785;SDS011;23625;48.784;9.336;2023-11-21T14:44:24;21.00;;;7.93;;
37785;SDS011;23625;48.784;9.336;2023-11-21T14:46:52;9.75;;;4.72;;
37785;SDS011;23625;48.784;9.336;2023-11-21T14:49:20;4.40;;;3.40;;
37785;SDS011;23625;48.784;9.336;2023-11-21T14:51:47;3.05;;;2.75;;
37785;SDS011;23625;48.784;9.336;2023-11-21T14:54:30;6.78;;;2.38;;
37785;SDS011;23625;48.784;9.336;2023-11-21T14:57:08;3.20;;;2.00;;
37785;SDS011;23625;48.784;9.336;2023-11-21T14:59:45;1.83;;;1.40;;
37785;SDS011;23625;48.784;9.336;2023-11-21T15:02:16;2.88;;;1.80;;
37785;SDS011;23625;48.784;9.336;2023-11-21T15:04:47;6.22;;;1.88;;
37785;SDS011;23625;48.784;9.336;2023-11-21T15:07:13;3.35;;;1.65;;
37785;SDS011;23625;48.784;9.336;2023-11-21T15:09:39;3.08;;;2.20;;